createdAt,value
2023-05-31T00:01:51.412Z,98677.94
2023-05-31T00:04:54.480Z,98672.91
2023-05-31T00:07:57.034Z,98664.66
2023-05-31T00:11:00.094Z,98668.44
2023-05-31T00:14:02.870Z,98672.41
2023-05-31T00:17:24.056Z,98672.81
2023-05-31T00:20:28.581Z,98669.47
2023-05-31T00:23:31.472Z,98676.06
2023-05-31T00:26:34.108Z,98678.97
2023-05-31T00:29:36.962Z,98682.94
2023-05-31T00:32:40.565Z,98682.94
2023-05-31T00:35:43.450Z,98682.94
2023-05-31T00:38:46.390Z,98685.78
2023-05-31T00:41:49.256Z,98683.34
2023-05-31T00:44:51.777Z,98679.06
2023-05-31T00:47:54.773Z,98677.63
2023-05-31T00:50:57.619Z,98671.31
2023-05-31T00:54:01.228Z,98676.75
2023-05-31T00:57:04.086Z,98678.88
2023-05-31T01:00:09.137Z,98673.91
2023-05-31T01:03:14.100Z,98674.59
2023-05-31T01:06:16.963Z,98671.88
2023-05-31T01:09:19.902Z,98669.34
2023-05-31T01:12:32.562Z,98671.00
2023-05-31T01:15:40.293Z,98663.31
2023-05-31T01:18:49.767Z,98666.03
2023-05-31T01:22:15.895Z,98660.59
2023-05-31T01:25:56.408Z,98656.25
2023-05-31T01:29:05.579Z,98657.28
2023-05-31T01:32:08.776Z,98661.25
2023-05-31T01:35:11.702Z,98656.03
2023-05-31T01:38:14.609Z,98644.66
2023-05-31T01:41:17.758Z,98655.25
2023-05-31T01:44:20.924Z,98659.13
2023-05-31T01:47:23.973Z,98662.03
2023-05-31T01:50:28.089Z,98668.78
2023-05-31T01:53:30.897Z,98668.09
2023-05-31T01:56:33.956Z,98671.66
2023-05-31T01:59:37.174Z,98675.44
2023-05-31T02:02:44.830Z,98665.75
2023-05-31T02:06:01.058Z,98669.41
2023-05-31T02:09:05.251Z,98668.53
2023-05-31T02:12:08.310Z,98667.00
2023-05-31T02:15:14.372Z,98679.16
2023-05-31T02:18:18.176Z,98679.94
2023-05-31T02:21:21.382Z,98685.19
2023-05-31T02:24:24.299Z,98684.41
2023-05-31T02:27:26.907Z,98690.41
2023-05-31T02:30:31.557Z,98685.97
2023-05-31T02:33:34.144Z,98681.59
2023-05-31T02:36:37.015Z,98692.34
2023-05-31T02:39:40.769Z,98695.25
2023-05-31T02:42:44.036Z,98688.00
2023-05-31T02:45:46.570Z,98683.59
2023-05-31T02:48:49.759Z,98692.72
2023-05-31T02:51:53.196Z,98690.94
2023-05-31T02:54:59.450Z,98689.13
2023-05-31T02:58:02.908Z,98690.94
2023-05-31T03:01:06.719Z,98684.41
2023-05-31T03:04:10.744Z,98694.88
2023-05-31T03:07:13.857Z,98698.09
2023-05-31T03:10:16.597Z,98691.25
2023-05-31T03:13:19.495Z,98697.37
2023-05-31T03:16:22.132Z,98700.88
2023-05-31T03:19:25.286Z,98706.22
2023-05-31T03:22:28.042Z,98704.19
2023-05-31T03:25:31.394Z,98709.53
2023-05-31T03:28:34.104Z,98712.03
2023-05-31T03:31:37.119Z,98708.28
2023-05-31T03:34:39.868Z,98709.06
2023-05-31T03:37:42.846Z,98719.84
2023-05-31T03:40:45.563Z,98717.00
2023-05-31T03:43:52.009Z,98715.28
2023-05-31T03:46:54.668Z,98727.06
2023-05-31T03:49:58.491Z,98717.97
2023-05-31T03:53:01.135Z,98721.78
2023-05-31T03:56:04.279Z,98724.56
2023-05-31T03:59:07.250Z,98730.78
2023-05-31T04:02:10.317Z,98725.72
2023-05-31T04:05:13.611Z,98727.53
2023-05-31T04:08:18.202Z,98729.31
2023-05-31T04:11:21.557Z,98727.44
2023-05-31T04:14:24.312Z,98732.09
2023-05-31T04:17:27.541Z,98732.19
2023-05-31T04:20:30.498Z,98740.25
2023-05-31T04:23:33.541Z,98751.78
2023-05-31T04:26:36.656Z,98743.47
2023-05-31T04:29:40.335Z,98743.28
2023-05-31T04:32:43.053Z,98746.69
2023-05-31T04:35:46.627Z,98746.41
2023-05-31T04:38:49.425Z,98742.53
2023-05-31T04:41:54.237Z,98747.78
2023-05-31T04:45:02.602Z,98749.06
2023-05-31T04:48:07.085Z,98740.75
2023-05-31T04:51:09.761Z,98757.44
2023-05-31T04:54:12.737Z,98761.53
2023-05-31T04:57:15.808Z,98760.28
2023-05-31T05:00:20.621Z,98766.22
2023-05-31T05:03:25.420Z,98766.75
2023-05-31T05:06:29.082Z,98763.97
2023-05-31T05:09:31.696Z,98772.56
2023-05-31T05:12:34.874Z,98778.09
2023-05-31T05:15:37.579Z,98777.34
2023-05-31T05:18:41.393Z,98778.38
2023-05-31T05:21:43.968Z,98775.16
2023-05-31T05:24:47.502Z,98775.50
2023-05-31T05:27:50.406Z,98775.22
2023-05-31T05:30:54.571Z,98770.50
2023-05-31T05:33:58.467Z,98771.94
2023-05-31T05:37:01.558Z,98777.62
2023-05-31T05:40:07.420Z,98779.75
2023-05-31T05:43:11.925Z,98781.00
2023-05-31T05:46:15.320Z,98781.13
2023-05-31T05:49:19.829Z,98785.84
2023-05-31T05:52:23.636Z,98786.66
2023-05-31T05:55:26.589Z,98785.25
2023-05-31T05:58:29.409Z,98788.41
2023-05-31T06:01:36.028Z,98795.50
2023-05-31T06:04:40.306Z,98799.28
2023-05-31T06:07:43.272Z,98794.28
2023-05-31T06:10:46.568Z,98800.69
2023-05-31T06:13:49.131Z,98805.63
2023-05-31T06:16:52.659Z,98800.03
2023-05-31T06:19:55.428Z,98803.00
2023-05-31T06:22:58.414Z,98808.00
2023-05-31T06:26:01.151Z,98808.41
2023-05-31T06:29:04.192Z,98803.87
2023-05-31T06:32:09.929Z,98805.94
2023-05-31T06:35:13.077Z,98800.12
2023-05-31T06:38:17.786Z,98806.56
2023-05-31T06:41:21.552Z,98807.34
2023-05-31T06:44:24.213Z,98806.84
2023-05-31T06:47:27.517Z,98808.22
2023-05-31T06:50:32.113Z,98811.94
2023-05-31T06:53:38.160Z,98812.84
2023-05-31T06:56:44.017Z,98809.47
2023-05-31T06:59:47.021Z,98809.44
2023-05-31T07:02:49.721Z,98801.78
2023-05-31T07:05:52.733Z,98816.22
2023-05-31T07:08:56.148Z,98810.19
2023-05-31T07:12:01.724Z,98812.19
2023-05-31T07:15:05.238Z,98816.44
2023-05-31T07:18:08.252Z,98819.16
2023-05-31T07:21:11.027Z,98826.41
2023-05-31T07:24:13.984Z,98822.44
2023-05-31T07:27:16.467Z,98825.28
2023-05-31T07:30:19.511Z,98820.69
2023-05-31T07:33:28.285Z,98822.75
2023-05-31T07:36:32.290Z,98822.16
2023-05-31T07:39:34.804Z,98816.94
2023-05-31T07:42:38.366Z,98817.41
2023-05-31T07:45:40.953Z,98814.94
2023-05-31T07:48:44.045Z,98812.09
2023-05-31T07:51:46.737Z,98815.31
2023-05-31T07:54:52.741Z,98812.91
2023-05-31T07:57:55.459Z,98808.41
2023-05-31T08:00:58.724Z,98808.62
2023-05-31T08:04:08.994Z,98818.63
2023-05-31T08:07:11.579Z,98822.63
2023-05-31T08:10:14.441Z,98820.66
2023-05-31T08:13:16.912Z,98823.66
2023-05-31T08:16:19.767Z,98824.97
2023-05-31T08:19:22.312Z,98822.44
2023-05-31T08:22:25.157Z,98827.44
2023-05-31T08:25:27.868Z,98823.12
2023-05-31T08:28:33.507Z,98832.09
2023-05-31T08:31:36.346Z,98827.75
2023-05-31T08:34:39.356Z,98837.56
2023-05-31T08:37:41.955Z,98834.41
2023-05-31T08:40:44.912Z,98832.44
2023-05-31T08:43:48.054Z,98837.97
2023-05-31T08:46:51.019Z,98827.19
2023-05-31T08:49:53.972Z,98830.47
2023-05-31T08:52:57.218Z,98829.09
2023-05-31T08:56:02.362Z,98828.19
2023-05-31T08:59:08.856Z,98832.91
2023-05-31T09:02:11.877Z,98832.00
2023-05-31T09:05:15.464Z,98829.25
2023-05-31T09:08:18.214Z,98828.22
2023-05-31T09:11:21.733Z,98821.84
2023-05-31T09:14:25.804Z,98821.91
2023-05-31T09:17:28.768Z,98820.56
2023-05-31T09:20:33.948Z,98823.56
2023-05-31T09:23:37.040Z,98827.09
2023-05-31T09:26:53.707Z,98822.56
2023-05-31T09:29:57.285Z,98815.34
2023-05-31T09:33:00.341Z,98831.94
2023-05-31T09:36:03.172Z,98826.16
2023-05-31T09:39:08.469Z,98830.75
2023-05-31T09:42:15.200Z,98830.66
2023-05-31T09:45:18.617Z,98831.28
2023-05-31T09:48:21.433Z,98825.16
2023-05-31T09:51:24.272Z,98818.63
2023-05-31T09:54:28.624Z,98811.19
2023-05-31T09:57:41.505Z,98818.19
2023-05-31T10:00:48.832Z,98819.34
2023-05-31T10:03:51.904Z,98829.41
2023-05-31T10:06:54.948Z,98820.09
2023-05-31T10:09:57.878Z,98815.59
2023-05-31T10:13:04.177Z,98826.16
2023-05-31T10:16:08.325Z,98821.34
2023-05-31T10:19:13.086Z,98816.69
2023-05-31T10:22:17.227Z,98818.63
2023-05-31T10:25:31.538Z,98810.94
2023-05-31T10:28:38.773Z,98814.22
2023-05-31T10:31:45.384Z,98807.50
2023-05-31T10:34:49.100Z,98800.56
2023-05-31T10:37:54.458Z,98806.13
2023-05-31T10:41:07.468Z,98803.75
2023-05-31T10:44:16.204Z,98809.19
2023-05-31T10:47:22.306Z,98813.59
2023-05-31T10:50:25.051Z,98804.72
2023-05-31T10:53:34.886Z,98809.19
2023-05-31T10:56:40.169Z,98806.47
2023-05-31T10:59:46.044Z,98806.56
2023-05-31T11:02:50.887Z,98807.81
2023-05-31T11:06:01.069Z,98806.97
2023-05-31T11:09:16.697Z,98803.38
2023-05-31T11:12:36.077Z,98796.91
2023-05-31T11:15:43.323Z,98779.47
2023-05-31T11:18:46.260Z,98795.44
2023-05-31T11:21:49.650Z,98789.09
2023-05-31T11:24:59.410Z,98788.53
2023-05-31T11:28:08.085Z,98787.84
2023-05-31T11:31:15.725Z,98781.72
2023-05-31T11:34:19.240Z,98785.00
2023-05-31T11:37:24.214Z,98778.69
2023-05-31T11:40:27.254Z,98779.19
2023-05-31T11:43:30.075Z,98769.22
2023-05-31T11:46:32.614Z,98767.06
2023-05-31T11:49:35.584Z,98767.50
2023-05-31T11:52:40.416Z,98756.25
2023-05-31T11:55:48.934Z,98768.34
2023-05-31T11:58:51.566Z,98766.34
2023-05-31T12:02:00.224Z,98762.44
2023-05-31T12:05:04.599Z,98757.41
2023-05-31T12:08:11.198Z,98762.97
2023-05-31T12:11:14.238Z,98753.41
2023-05-31T12:14:16.865Z,98748.31
2023-05-31T12:17:19.805Z,98741.72
2023-05-31T12:20:22.516Z,98748.84
2023-05-31T12:23:25.470Z,98745.91
2023-05-31T12:26:28.525Z,98749.38
2023-05-31T12:29:32.287Z,98750.03
2023-05-31T12:32:34.936Z,98751.47
2023-05-31T12:35:44.938Z,98742.47
2023-05-31T12:38:47.513Z,98741.72
2023-05-31T12:41:51.231Z,98733.41
2023-05-31T12:44:53.761Z,98730.63
2023-05-31T12:47:59.967Z,98727.69
2023-05-31T12:51:05.586Z,98724.72
2023-05-31T12:54:14.981Z,98721.00
2023-05-31T12:57:17.537Z,98727.03
2023-05-31T13:00:20.841Z,98721.78
2023-05-31T13:03:23.654Z,98728.13
2023-05-31T13:06:26.586Z,98713.16
2023-05-31T13:09:29.201Z,98718.31
2023-05-31T13:12:32.311Z,98717.97
2023-05-31T13:15:35.067Z,98713.94
2023-05-31T13:18:37.901Z,98710.28
2023-05-31T13:21:40.674Z,98715.09
2023-05-31T13:24:43.525Z,98704.34
2023-05-31T13:27:46.415Z,98698.50
2023-05-31T13:30:49.504Z,98690.06
2023-05-31T13:33:52.342Z,98692.81
2023-05-31T13:36:55.267Z,98690.19
2023-05-31T13:39:59.026Z,98696.31
2023-05-31T13:43:02.202Z,98694.94
2023-05-31T13:46:06.707Z,98688.56
2023-05-31T13:49:09.771Z,98689.28
2023-05-31T13:52:15.046Z,98690.78
2023-05-31T13:55:18.145Z,98678.72
2023-05-31T13:58:20.696Z,98678.09
2023-05-31T14:01:23.661Z,98675.44
2023-05-31T14:04:26.944Z,98654.00
2023-05-31T14:07:30.608Z,98670.91
2023-05-31T14:10:34.556Z,98668.13
2023-05-31T14:13:37.175Z,98665.19
2023-05-31T14:16:40.149Z,98664.72
2023-05-31T14:19:43.516Z,98665.22
2023-05-31T14:22:46.338Z,98663.16
2023-05-31T14:25:48.898Z,98654.38
2023-05-31T14:28:51.820Z,98657.97
2023-05-31T14:31:54.394Z,98663.62
2023-05-31T14:34:57.331Z,98654.72
2023-05-31T14:38:08.771Z,98648.31
2023-05-31T14:41:22.914Z,98648.28
2023-05-31T14:44:26.005Z,98656.97
2023-05-31T14:47:28.920Z,98648.12
2023-05-31T14:50:31.506Z,98645.16
2023-05-31T14:53:34.255Z,98649.69
2023-05-31T14:56:36.814Z,98650.38
2023-05-31T14:59:39.809Z,98648.59
2023-05-31T15:02:42.450Z,98653.06
2023-05-31T15:05:45.521Z,98654.13
2023-05-31T15:08:48.210Z,98649.75
2023-05-31T15:11:51.357Z,98646.47
2023-05-31T15:14:54.110Z,98645.91
2023-05-31T15:17:57.040Z,98639.25
2023-05-31T15:21:00.179Z,98641.88
2023-05-31T15:24:04.606Z,98639.09
2023-05-31T15:27:07.206Z,98650.91
2023-05-31T15:30:10.589Z,98645.31
2023-05-31T15:33:13.100Z,98643.53
2023-05-31T15:36:16.016Z,98633.41
2023-05-31T15:39:18.748Z,98638.94
2023-05-31T15:42:21.696Z,98629.25
2023-05-31T15:45:24.338Z,98635.28
2023-05-31T15:48:27.191Z,98626.44
2023-05-31T15:51:29.761Z,98626.06
2023-05-31T15:54:32.706Z,98623.31
2023-05-31T15:57:35.626Z,98626.41
2023-05-31T16:00:39.398Z,98613.25
2023-05-31T16:03:42.341Z,98612.88
2023-05-31T16:06:44.882Z,98595.50
2023-05-31T16:09:47.682Z,98614.63
2023-05-31T16:12:50.229Z,98612.91
2023-05-31T16:15:53.164Z,98606.37
2023-05-31T16:18:56.332Z,98603.22
2023-05-31T16:21:59.311Z,98606.13
2023-05-31T16:25:01.980Z,98602.09
2023-05-31T16:28:04.872Z,98603.09
2023-05-31T16:31:13.431Z,98604.03
2023-05-31T16:34:17.727Z,98605.44
2023-05-31T16:37:22.325Z,98610.12
2023-05-31T16:40:25.254Z,98615.25
2023-05-31T16:43:27.921Z,98614.69
2023-05-31T16:46:31.319Z,98620.81
2023-05-31T16:49:34.005Z,98609.72
2023-05-31T16:52:36.876Z,98602.09
2023-05-31T16:55:39.635Z,98610.81
2023-05-31T16:58:42.761Z,98617.94
2023-05-31T17:01:45.578Z,98615.75
2023-05-31T17:04:48.472Z,98625.09
2023-05-31T17:07:51.317Z,98619.59
2023-05-31T17:10:54.114Z,98615.72
2023-05-31T17:13:56.677Z,98620.03
2023-05-31T17:16:59.629Z,98626.41
2023-05-31T17:20:02.172Z,98620.03
2023-05-31T17:23:05.009Z,98619.78
2023-05-31T17:26:07.648Z,98622.22
2023-05-31T17:29:11.136Z,98618.62
2023-05-31T17:32:13.733Z,98625.53
2023-05-31T17:35:16.780Z,98628.97
2023-05-31T17:38:19.292Z,98632.81
2023-05-31T17:41:23.660Z,98626.00
2023-05-31T17:44:26.385Z,98624.25
2023-05-31T17:47:29.416Z,98619.16
2023-05-31T17:50:31.998Z,98624.75
2023-05-31T17:53:34.972Z,98624.78
2023-05-31T17:56:40.902Z,98628.37
2023-05-31T17:59:44.618Z,98628.91
2023-05-31T18:02:47.288Z,98631.59
2023-05-31T18:05:50.360Z,98624.72
2023-05-31T18:08:52.873Z,98623.28
2023-05-31T18:11:56.430Z,98618.31
2023-05-31T18:14:59.065Z,98619.84
2023-05-31T18:18:01.945Z,98622.25
2023-05-31T18:21:04.566Z,98623.63
2023-05-31T18:24:07.402Z,98618.81
2023-05-31T18:27:15.203Z,98619.72
2023-05-31T18:30:18.449Z,98616.75
2023-05-31T18:33:21.058Z,98605.78
2023-05-31T18:36:24.336Z,98628.28
2023-05-31T18:39:27.162Z,98628.25
2023-05-31T18:42:30.082Z,98634.47
2023-05-31T18:45:32.777Z,98637.69
2023-05-31T18:48:37.527Z,98636.47
2023-05-31T18:51:41.021Z,98625.06
2023-05-31T18:54:44.539Z,98637.53
2023-05-31T18:57:47.412Z,98653.47
2023-05-31T19:00:50.661Z,98661.91
2023-05-31T19:03:53.405Z,98663.56
2023-05-31T19:06:56.428Z,98670.28
2023-05-31T19:09:59.288Z,98670.41
2023-05-31T19:13:02.275Z,98668.44
2023-05-31T19:16:05.184Z,98673.16
2023-05-31T19:19:08.066Z,98672.41
2023-05-31T19:22:10.845Z,98674.91
2023-05-31T19:25:14.165Z,98674.91
2023-05-31T19:28:16.899Z,98675.16
2023-05-31T19:31:20.104Z,98680.25
2023-05-31T19:34:22.828Z,98683.84
2023-05-31T19:37:25.934Z,98660.00
2023-05-31T19:40:30.894Z,98681.97
2023-05-31T19:43:35.039Z,98686.59
2023-05-31T19:46:37.652Z,98684.38
2023-05-31T19:49:40.669Z,98688.94
2023-05-31T19:52:47.236Z,98693.31
2023-05-31T19:55:50.249Z,98693.03
2023-05-31T19:58:52.821Z,98694.78
2023-05-31T20:01:56.995Z,98695.25
2023-05-31T20:04:59.991Z,98693.13
2023-05-31T20:08:04.139Z,98695.13
2023-05-31T20:11:07.828Z,98697.34
2023-05-31T20:14:10.806Z,98698.47
2023-05-31T20:17:13.718Z,98690.94
2023-05-31T20:20:16.554Z,98694.28
2023-05-31T20:23:19.560Z,98692.00
2023-05-31T20:26:25.277Z,98695.03
2023-05-31T20:29:28.346Z,98692.25
2023-05-31T20:32:31.104Z,98697.44
2023-05-31T20:35:34.070Z,98694.53
2023-05-31T20:38:36.905Z,98686.69
2023-05-31T20:41:39.811Z,98686.06
2023-05-31T20:44:44.750Z,98683.75
2023-05-31T20:47:47.666Z,98682.53
2023-05-31T20:50:50.409Z,98679.03
2023-05-31T20:53:53.352Z,98679.53
2023-05-31T20:56:56.476Z,98673.97
2023-05-31T20:59:59.785Z,98682.41
2023-05-31T21:03:03.528Z,98679.78
2023-05-31T21:06:06.872Z,98675.09
2023-05-31T21:09:09.464Z,98680.66
2023-05-31T21:12:12.945Z,98669.38
2023-05-31T21:15:15.953Z,98665.13
2023-05-31T21:18:18.990Z,98673.59
2023-05-31T21:21:21.878Z,98674.44
2023-05-31T21:24:24.912Z,98624.75
2023-05-31T21:27:27.846Z,98676.00
2023-05-31T21:30:30.722Z,98674.81
2023-05-31T21:33:33.496Z,98673.75
2023-05-31T21:36:36.790Z,98682.72
2023-05-31T21:39:39.440Z,98679.94
2023-05-31T21:42:42.240Z,98673.94
2023-05-31T21:45:44.910Z,98675.91
2023-05-31T21:48:47.732Z,98677.13
2023-05-31T21:51:50.301Z,98677.03
2023-05-31T21:54:53.299Z,98681.19
2023-05-31T21:57:55.798Z,98679.31
2023-05-31T22:00:59.553Z,98678.12
2023-05-31T22:04:02.702Z,98674.75
2023-05-31T22:07:05.954Z,98672.13
2023-05-31T22:10:09.067Z,98671.59
2023-05-31T22:13:11.552Z,98662.56
2023-05-31T22:16:22.246Z,98680.22
2023-05-31T22:19:26.628Z,98677.72
2023-05-31T22:22:30.133Z,98679.47
2023-05-31T22:25:32.889Z,98678.81
2023-05-31T22:28:36.191Z,98675.44
2023-05-31T22:31:38.955Z,98672.06
2023-05-31T22:34:41.931Z,98668.69
2023-05-31T22:37:46.923Z,98665.41
2023-05-31T22:40:50.005Z,98674.34
2023-05-31T22:43:52.593Z,98668.13
2023-05-31T22:46:55.844Z,98672.94
2023-05-31T22:49:58.656Z,98662.28
2023-05-31T22:53:01.710Z,98664.06
2023-05-31T22:56:04.490Z,98672.69
2023-05-31T22:59:07.368Z,98674.75
2023-05-31T23:02:10.438Z,98678.59
2023-05-31T23:05:13.966Z,98674.84
2023-05-31T23:08:19.758Z,98683.94
2023-05-31T23:11:30.297Z,98677.81
2023-05-31T23:14:33.544Z,98675.97
2023-05-31T23:17:40.638Z,98686.09
2023-05-31T23:20:44.805Z,98684.69
2023-05-31T23:23:47.663Z,98675.19
2023-05-31T23:26:50.301Z,98676.91
2023-05-31T23:29:53.116Z,98676.41
2023-05-31T23:32:55.997Z,98677.59
2023-05-31T23:35:58.938Z,98671.12
2023-05-31T23:39:01.469Z,98664.50
2023-05-31T23:42:04.607Z,98667.94
2023-05-31T23:45:07.564Z,98671.06
2023-05-31T23:48:11.646Z,98665.97
2023-05-31T23:51:14.177Z,98668.78
2023-05-31T23:54:17.062Z,98663.97
2023-05-31T23:57:19.655Z,98659.59
